Pagrindinis puslapis
METAR-TAF:

METAR-TAF

Oro uostai :

Voronežas, Rusija

platuma: 51-39N, ilguma: 039-15E, Aukštis: 154 m

Dabartinis oras

Ataskaita buvo paskelbta 38 minutes, ne 12:30 UTC
Vėjas 6 kt iš Pietų/Pietryčių, svyruoja nuo Rytų/Pietryčių ir Pietvakarių
Temperatūra 31°C
Drėgmė 29%
Slėgis 1014 hPa
Matomumas 10 km arba daugiau
nėra debesų žemiau 1500 m ir nėra kamuolinių lietaus debesų

METAR: UUOO 031230Z 15003MPS 110V230 CAVOK 31/11 Q1014 R12/090070 NOSIG RMK QFE747

Laikas: 16:08 (13:08 UTC)

Prognozė

Ataskaita buvo paskelbta 2 valandos ir 8 minutes, ne 11:00 UTC
Prognozė galioja nuo 03 metu 12 UTC su 03 metu 21 UTC
Vėjas 6 kt iš Rytų/Pietryčių
Matomumas 10 km arba daugiau
nėra debesų žemiau 1500 m ir nėra kamuolinių lietaus debesų

TAF: UUOO 031100Z 0312/0321 12003MPS CAVOK

Orai ataskaitas ir orų prognozės (METAR, TAF).

turimą stotys yra geltonos ir raudonos taškus žemėlapyje.

Perkelti pele per norėdami pamatyti stoties vardą.

Tada spustelėkite, norėdami matyti oro stebėjimo ir prognozės.

Norėdami pakeisti žemėlapį: spustelėkite ant žalios mygtukų su juodo kryžiaus žemyn,; žalią mygtuką su brūkšneliu, jei norite nutolinti; arba žalių rodyklių gretimoms žemėlapius.


METAR-TAF: